sensor_id;sensor_type;location;lat;lon;timestamp;P1;durP1;ratioP1;P2;durP2;ratioP2
32295;SDS011;18781;51.550;5.418;2023-02-20T00:02:00;20.15;;;10.48;;
32295;SDS011;18781;51.550;5.418;2023-02-20T00:04:26;18.10;;;9.52;;
32295;SDS011;18781;51.550;5.418;2023-02-20T00:06:51;19.70;;;10.40;;
32295;SDS011;18781;51.550;5.418;2023-02-20T00:09:17;20.33;;;10.32;;
32295;SDS011;18781;51.550;5.418;2023-02-20T00:11:42;19.73;;;9.85;;
32295;SDS011;18781;51.550;5.418;2023-02-20T00:14:08;22.50;;;10.35;;
32295;SDS011;18781;51.550;5.418;2023-02-20T00:16:33;18.90;;;10.77;;
32295;SDS011;18781;51.550;5.418;2023-02-20T00:18:59;20.60;;;10.88;;
32295;SDS011;18781;51.550;5.418;2023-02-20T00:21:24;21.30;;;10.15;;
32295;SDS011;18781;51.550;5.418;2023-02-20T00:23:50;20.88;;;10.90;;
32295;SDS011;18781;51.550;5.418;2023-02-20T00:26:16;22.27;;;11.10;;
32295;SDS011;18781;51.550;5.418;2023-02-20T00:28:41;22.90;;;11.70;;
32295;SDS011;18781;51.550;5.418;2023-02-20T00:31:10;20.20;;;11.90;;
32295;SDS011;18781;51.550;5.418;2023-02-20T00:33:38;26.25;;;12.13;;
32295;SDS011;18781;51.550;5.418;2023-02-20T00:36:03;24.70;;;12.48;;
32295;SDS011;18781;51.550;5.418;2023-02-20T00:38:29;19.42;;;11.68;;
32295;SDS011;18781;51.550;5.418;2023-02-20T00:40:55;22.77;;;12.27;;
32295;SDS011;18781;51.550;5.418;2023-02-20T00:43:21;24.95;;;12.80;;
32295;SDS011;18781;51.550;5.418;2023-02-20T00:45:46;29.58;;;13.23;;
32295;SDS011;18781;51.550;5.418;2023-02-20T00:48:12;21.65;;;12.82;;
32295;SDS011;18781;51.550;5.418;2023-02-20T00:50:37;25.10;;;12.45;;
32295;SDS011;18781;51.550;5.418;2023-02-20T00:53:03;26.70;;;13.65;;
32295;SDS011;18781;51.550;5.418;2023-02-20T00:55:29;25.13;;;13.15;;
32295;SDS011;18781;51.550;5.418;2023-02-20T00:57:54;23.13;;;12.77;;
32295;SDS011;18781;51.550;5.418;2023-02-20T01:00:23;21.88;;;12.50;;
32295;SDS011;18781;51.550;5.418;2023-02-20T01:02:51;22.23;;;12.60;;
32295;SDS011;18781;51.550;5.418;2023-02-20T01:05:17;22.95;;;12.48;;
32295;SDS011;18781;51.550;5.418;2023-02-20T01:07:42;29.75;;;13.07;;
32295;SDS011;18781;51.550;5.418;2023-02-20T01:10:09;21.60;;;12.00;;
32295;SDS011;18781;51.550;5.418;2023-02-20T01:12:36;24.33;;;12.30;;
32295;SDS011;18781;51.550;5.418;2023-02-20T01:15:01;25.48;;;12.10;;
32295;SDS011;18781;51.550;5.418;2023-02-20T01:17:28;24.42;;;13.02;;
32295;SDS011;18781;51.550;5.418;2023-02-20T01:19:54;27.75;;;12.43;;
32295;SDS011;18781;51.550;5.418;2023-02-20T01:22:20;25.23;;;13.73;;
32295;SDS011;18781;51.550;5.418;2023-02-20T01:24:45;22.85;;;12.85;;
32295;SDS011;18781;51.550;5.418;2023-02-20T01:27:11;23.58;;;12.40;;
32295;SDS011;18781;51.550;5.418;2023-02-20T01:29:37;21.85;;;12.45;;
32295;SDS011;18781;51.550;5.418;2023-02-20T01:32:02;30.02;;;12.35;;
32295;SDS011;18781;51.550;5.418;2023-02-20T01:34:28;27.75;;;13.13;;
32295;SDS011;18781;51.550;5.418;2023-02-20T01:36:54;23.15;;;12.30;;
32295;SDS011;18781;51.550;5.418;2023-02-20T01:39:21;27.17;;;13.10;;
32295;SDS011;18781;51.550;5.418;2023-02-20T01:41:49;23.98;;;12.57;;
32295;SDS011;18781;51.550;5.418;2023-02-20T01:44:22;28.15;;;13.20;;
32295;SDS011;18781;51.550;5.418;2023-02-20T01:46:51;24.88;;;12.80;;
32295;SDS011;18781;51.550;5.418;2023-02-20T01:49:43;23.65;;;12.50;;
32295;SDS011;18781;51.550;5.418;2023-02-20T01:52:17;25.27;;;12.25;;
32295;SDS011;18781;51.550;5.418;2023-02-20T01:54:48;25.35;;;12.93;;
32295;SDS011;18781;51.550;5.418;2023-02-20T01:57:22;21.88;;;11.77;;
32295;SDS011;18781;51.550;5.418;2023-02-20T01:59:50;23.83;;;12.88;;
32295;SDS011;18781;51.550;5.418;2023-02-20T02:02:18;21.50;;;12.40;;
32295;SDS011;18781;51.550;5.418;2023-02-20T02:04:44;23.40;;;12.60;;
32295;SDS011;18781;51.550;5.418;2023-02-20T02:07:13;25.48;;;13.10;;
32295;SDS011;18781;51.550;5.418;2023-02-20T02:09:41;30.48;;;13.25;;
32295;SDS011;18781;51.550;5.418;2023-02-20T02:12:13;28.13;;;13.80;;
32295;SDS011;18781;51.550;5.418;2023-02-20T02:14:39;31.13;;;13.63;;
32295;SDS011;18781;51.550;5.418;2023-02-20T02:19:40;27.50;;;13.10;;
32295;SDS011;18781;51.550;5.418;2023-02-20T02:28:51;26.75;;;14.00;;
32295;SDS011;18781;51.550;5.418;2023-02-20T02:40:01;36.38;;;17.40;;
32295;SDS011;18781;51.550;5.418;2023-02-20T02:42:59;30.98;;;16.83;;
32295;SDS011;18781;51.550;5.418;2023-02-20T02:45:36;37.22;;;18.13;;
32295;SDS011;18781;51.550;5.418;2023-02-20T02:51:02;38.50;;;18.65;;
32295;SDS011;18781;51.550;5.418;2023-02-20T02:53:34;37.50;;;20.33;;
32295;SDS011;18781;51.550;5.418;2023-02-20T02:56:00;46.13;;;20.65;;
32295;SDS011;18781;51.550;5.418;2023-02-20T02:58:45;39.65;;;20.23;;
32295;SDS011;18781;51.550;5.418;2023-02-20T03:01:15;45.08;;;21.92;;
32295;SDS011;18781;51.550;5.418;2023-02-20T03:03:44;41.60;;;21.25;;
32295;SDS011;18781;51.550;5.418;2023-02-20T03:06:12;42.65;;;21.88;;
32295;SDS011;18781;51.550;5.418;2023-02-20T03:08:58;51.65;;;23.08;;
32295;SDS011;18781;51.550;5.418;2023-02-20T03:11:31;47.63;;;25.10;;
32295;SDS011;18781;51.550;5.418;2023-02-20T03:14:00;47.47;;;24.48;;
32295;SDS011;18781;51.550;5.418;2023-02-20T03:19:35;47.78;;;24.58;;
32295;SDS011;18781;51.550;5.418;2023-02-20T03:22:07;52.92;;;26.35;;
32295;SDS011;18781;51.550;5.418;2023-02-20T03:24:56;46.72;;;23.75;;
32295;SDS011;18781;51.550;5.418;2023-02-20T03:27:37;43.20;;;24.02;;
32295;SDS011;18781;51.550;5.418;2023-02-20T03:30:15;50.25;;;25.42;;
32295;SDS011;18781;51.550;5.418;2023-02-20T03:32:46;56.70;;;24.33;;
32295;SDS011;18781;51.550;5.418;2023-02-20T03:35:34;50.67;;;25.33;;
32295;SDS011;18781;51.550;5.418;2023-02-20T03:38:21;49.63;;;26.20;;
32295;SDS011;18781;51.550;5.418;2023-02-20T03:41:08;50.35;;;25.58;;
32295;SDS011;18781;51.550;5.418;2023-02-20T03:43:56;41.47;;;23.67;;
32295;SDS011;18781;51.550;5.418;2023-02-20T03:46:24;49.63;;;24.30;;
32295;SDS011;18781;51.550;5.418;2023-02-20T03:48:58;45.20;;;22.90;;
32295;SDS011;18781;51.550;5.418;2023-02-20T03:51:28;51.10;;;23.95;;
32295;SDS011;18781;51.550;5.418;2023-02-20T03:53:53;43.95;;;23.45;;
32295;SDS011;18781;51.550;5.418;2023-02-20T03:56:24;45.00;;;22.27;;
32295;SDS011;18781;51.550;5.418;2023-02-20T03:58:54;43.33;;;21.92;;
32295;SDS011;18781;51.550;5.418;2023-02-20T04:01:25;56.22;;;23.83;;
32295;SDS011;18781;51.550;5.418;2023-02-20T04:03:51;40.35;;;21.63;;
32295;SDS011;18781;51.550;5.418;2023-02-20T04:06:20;42.63;;;22.55;;
32295;SDS011;18781;51.550;5.418;2023-02-20T04:08:55;43.42;;;22.30;;
32295;SDS011;18781;51.550;5.418;2023-02-20T04:13:57;39.75;;;21.23;;
32295;SDS011;18781;51.550;5.418;2023-02-20T04:16:24;39.97;;;21.05;;
32295;SDS011;18781;51.550;5.418;2023-02-20T04:18:50;40.22;;;20.50;;
32295;SDS011;18781;51.550;5.418;2023-02-20T04:21:24;40.85;;;20.65;;
32295;SDS011;18781;51.550;5.418;2023-02-20T04:24:05;40.70;;;21.52;;
32295;SDS011;18781;51.550;5.418;2023-02-20T04:26:33;37.75;;;21.15;;
32295;SDS011;18781;51.550;5.418;2023-02-20T04:29:00;46.15;;;20.60;;
32295;SDS011;18781;51.550;5.418;2023-02-20T04:31:25;41.30;;;21.00;;
32295;SDS011;18781;51.550;5.418;2023-02-20T04:33:51;46.13;;;21.83;;
32295;SDS011;18781;51.550;5.418;2023-02-20T04:36:17;50.40;;;23.10;;
32295;SDS011;18781;51.550;5.418;2023-02-20T04:38:42;42.65;;;21.90;;
32295;SDS011;18781;51.550;5.418;2023-02-20T04:41:08;43.47;;;22.45;;
32295;SDS011;18781;51.550;5.418;2023-02-20T04:43:34;40.70;;;22.67;;
32295;SDS011;18781;51.550;5.418;2023-02-20T04:45:59;46.38;;;24.73;;
32295;SDS011;18781;51.550;5.418;2023-02-20T04:48:25;46.60;;;24.25;;
32295;SDS011;18781;51.550;5.418;2023-02-20T04:50:50;43.65;;;23.50;;
32295;SDS011;18781;51.550;5.418;2023-02-20T04:53:17;46.70;;;23.65;;
32295;SDS011;18781;51.550;5.418;2023-02-20T04:55:43;50.50;;;25.40;;
32295;SDS011;18781;51.550;5.418;2023-02-20T04:58:08;48.17;;;25.73;;
32295;SDS011;18781;51.550;5.418;2023-02-20T05:00:34;48.38;;;24.85;;
32295;SDS011;18781;51.550;5.418;2023-02-20T05:02:59;49.33;;;26.00;;
32295;SDS011;18781;51.550;5.418;2023-02-20T05:05:26;48.90;;;25.17;;
32295;SDS011;18781;51.550;5.418;2023-02-20T05:07:56;49.15;;;25.70;;
32295;SDS011;18781;51.550;5.418;2023-02-20T05:10:24;53.55;;;27.23;;
32295;SDS011;18781;51.550;5.418;2023-02-20T05:12:51;55.75;;;27.58;;
32295;SDS011;18781;51.550;5.418;2023-02-20T05:15:18;54.13;;;27.50;;
32295;SDS011;18781;51.550;5.418;2023-02-20T05:17:44;55.08;;;27.00;;
32295;SDS011;18781;51.550;5.418;2023-02-20T05:20:10;59.05;;;28.52;;
32295;SDS011;18781;51.550;5.418;2023-02-20T05:22:36;49.50;;;28.15;;
32295;SDS011;18781;51.550;5.418;2023-02-20T05:25:02;58.60;;;29.88;;
32295;SDS011;18781;51.550;5.418;2023-02-20T05:27:28;58.92;;;29.52;;
32295;SDS011;18781;51.550;5.418;2023-02-20T05:29:58;54.35;;;29.00;;
32295;SDS011;18781;51.550;5.418;2023-02-20T05:32:25;55.38;;;30.08;;
32295;SDS011;18781;51.550;5.418;2023-02-20T05:34:52;64.65;;;30.25;;
32295;SDS011;18781;51.550;5.418;2023-02-20T05:37:18;49.05;;;29.40;;
32295;SDS011;18781;51.550;5.418;2023-02-20T05:39:45;63.40;;;32.15;;
32295;SDS011;18781;51.550;5.418;2023-02-20T05:42:11;61.30;;;30.40;;
32295;SDS011;18781;51.550;5.418;2023-02-20T05:44:38;60.58;;;31.02;;
32295;SDS011;18781;51.550;5.418;2023-02-20T05:47:04;61.33;;;31.67;;
32295;SDS011;18781;51.550;5.418;2023-02-20T05:49:31;69.10;;;32.47;;
32295;SDS011;18781;51.550;5.418;2023-02-20T05:51:58;67.82;;;31.13;;
32295;SDS011;18781;51.550;5.418;2023-02-20T05:54:25;64.50;;;31.63;;
32295;SDS011;18781;51.550;5.418;2023-02-20T05:56:50;60.53;;;31.77;;
32295;SDS011;18781;51.550;5.418;2023-02-20T05:59:18;63.35;;;31.73;;
32295;SDS011;18781;51.550;5.418;2023-02-20T06:01:45;62.45;;;31.30;;
32295;SDS011;18781;51.550;5.418;2023-02-20T06:04:11;69.45;;;34.50;;
32295;SDS011;18781;51.550;5.418;2023-02-20T06:06:38;66.70;;;34.17;;
32295;SDS011;18781;51.550;5.418;2023-02-20T06:09:05;66.07;;;34.15;;
32295;SDS011;18781;51.550;5.418;2023-02-20T06:11:33;58.80;;;32.72;;
32295;SDS011;18781;51.550;5.418;2023-02-20T06:13:59;66.13;;;35.22;;
32295;SDS011;18781;51.550;5.418;2023-02-20T06:16:25;65.30;;;34.65;;
32295;SDS011;18781;51.550;5.418;2023-02-20T06:18:53;66.88;;;36.20;;
32295;SDS011;18781;51.550;5.418;2023-02-20T06:21:20;76.32;;;35.78;;
32295;SDS011;18781;51.550;5.418;2023-02-20T06:23:47;65.60;;;35.60;;
32295;SDS011;18781;51.550;5.418;2023-02-20T06:26:15;63.33;;;35.00;;
32295;SDS011;18781;51.550;5.418;2023-02-20T06:28:42;66.68;;;37.38;;
32295;SDS011;18781;51.550;5.418;2023-02-20T06:31:08;67.93;;;37.30;;
32295;SDS011;18781;51.550;5.418;2023-02-20T06:33:34;64.10;;;33.92;;
32295;SDS011;18781;51.550;5.418;2023-02-20T06:36:00;63.80;;;35.72;;
32295;SDS011;18781;51.550;5.418;2023-02-20T06:38:26;64.93;;;34.50;;
32295;SDS011;18781;51.550;5.418;2023-02-20T06:40:52;74.50;;;36.13;;
32295;SDS011;18781;51.550;5.418;2023-02-20T06:43:18;68.43;;;34.75;;
32295;SDS011;18781;51.550;5.418;2023-02-20T06:45:43;63.47;;;34.83;;
32295;SDS011;18781;51.550;5.418;2023-02-20T06:48:09;71.90;;;34.67;;
32295;SDS011;18781;51.550;5.418;2023-02-20T06:50:35;62.25;;;33.92;;
32295;SDS011;18781;51.550;5.418;2023-02-20T06:53:01;68.07;;;33.08;;
32295;SDS011;18781;51.550;5.418;2023-02-20T06:55:26;61.00;;;33.70;;
32295;SDS011;18781;51.550;5.418;2023-02-20T06:57:52;58.55;;;32.72;;
32295;SDS011;18781;51.550;5.418;2023-02-20T07:00:17;61.55;;;33.72;;
32295;SDS011;18781;51.550;5.418;2023-02-20T07:02:43;68.03;;;32.95;;
32295;SDS011;18781;51.550;5.418;2023-02-20T07:05:10;61.90;;;32.97;;
32295;SDS011;18781;51.550;5.418;2023-02-20T07:07:36;65.00;;;33.67;;
32295;SDS011;18781;51.550;5.418;2023-02-20T07:10:01;64.35;;;33.58;;
32295;SDS011;18781;51.550;5.418;2023-02-20T07:12:30;68.20;;;33.83;;
32295;SDS011;18781;51.550;5.418;2023-02-20T07:14:56;61.97;;;33.67;;
32295;SDS011;18781;51.550;5.418;2023-02-20T07:17:22;59.80;;;33.05;;
32295;SDS011;18781;51.550;5.418;2023-02-20T07:19:47;70.40;;;33.42;;
32295;SDS011;18781;51.550;5.418;2023-02-20T07:22:13;64.28;;;33.80;;
32295;SDS011;18781;51.550;5.418;2023-02-20T07:24:38;64.55;;;34.10;;
32295;SDS011;18781;51.550;5.418;2023-02-20T07:27:05;67.95;;;34.15;;
32295;SDS011;18781;51.550;5.418;2023-02-20T07:29:32;75.40;;;36.55;;
32295;SDS011;18781;51.550;5.418;2023-02-20T07:31:57;65.45;;;34.80;;
32295;SDS011;18781;51.550;5.418;2023-02-20T07:34:23;63.25;;;33.83;;
32295;SDS011;18781;51.550;5.418;2023-02-20T07:36:49;66.75;;;33.90;;
32295;SDS011;18781;51.550;5.418;2023-02-20T07:39:14;62.83;;;34.00;;
32295;SDS011;18781;51.550;5.418;2023-02-20T07:41:40;60.90;;;34.05;;
32295;SDS011;18781;51.550;5.418;2023-02-20T07:44:08;67.40;;;34.60;;
32295;SDS011;18781;51.550;5.418;2023-02-20T07:46:36;66.15;;;34.25;;
32295;SDS011;18781;51.550;5.418;2023-02-20T07:49:03;60.47;;;32.22;;
32295;SDS011;18781;51.550;5.418;2023-02-20T07:51:29;60.83;;;33.17;;
32295;SDS011;18781;51.550;5.418;2023-02-20T07:53:55;66.82;;;33.05;;
32295;SDS011;18781;51.550;5.418;2023-02-20T07:56:21;62.33;;;31.85;;
32295;SDS011;18781;51.550;5.418;2023-02-20T07:58:50;63.88;;;33.03;;
32295;SDS011;18781;51.550;5.418;2023-02-20T08:01:16;61.35;;;30.83;;
32295;SDS011;18781;51.550;5.418;2023-02-20T08:03:42;64.93;;;31.83;;
32295;SDS011;18781;51.550;5.418;2023-02-20T08:06:08;57.05;;;32.17;;
32295;SDS011;18781;51.550;5.418;2023-02-20T08:08:34;61.15;;;32.15;;
32295;SDS011;18781;51.550;5.418;2023-02-20T08:10:59;65.50;;;31.85;;
32295;SDS011;18781;51.550;5.418;2023-02-20T08:13:25;58.95;;;31.58;;
32295;SDS011;18781;51.550;5.418;2023-02-20T08:15:51;61.75;;;33.08;;
32295;SDS011;18781;51.550;5.418;2023-02-20T08:18:16;61.53;;;31.10;;
32295;SDS011;18781;51.550;5.418;2023-02-20T08:20:42;61.95;;;30.27;;
32295;SDS011;18781;51.550;5.418;2023-02-20T08:23:17;64.45;;;31.33;;
32295;SDS011;18781;51.550;5.418;2023-02-20T08:25:45;64.72;;;32.65;;
32295;SDS011;18781;51.550;5.418;2023-02-20T08:28:11;64.63;;;31.63;;
32295;SDS011;18781;51.550;5.418;2023-02-20T08:30:37;61.30;;;31.40;;
32295;SDS011;18781;51.550;5.418;2023-02-20T08:33:03;53.15;;;28.95;;
32295;SDS011;18781;51.550;5.418;2023-02-20T08:35:30;59.00;;;30.42;;
32295;SDS011;18781;51.550;5.418;2023-02-20T08:37:59;54.65;;;30.15;;
32295;SDS011;18781;51.550;5.418;2023-02-20T08:40:28;60.63;;;30.75;;
32295;SDS011;18781;51.550;5.418;2023-02-20T08:42:54;60.55;;;31.00;;
32295;SDS011;18781;51.550;5.418;2023-02-20T08:45:19;63.60;;;31.25;;
32295;SDS011;18781;51.550;5.418;2023-02-20T08:47:46;61.10;;;30.75;;
32295;SDS011;18781;51.550;5.418;2023-02-20T08:50:12;63.22;;;31.42;;
32295;SDS011;18781;51.550;5.418;2023-02-20T08:52:38;60.03;;;32.92;;
32295;SDS011;18781;51.550;5.418;2023-02-20T08:55:06;61.80;;;32.67;;
32295;SDS011;18781;51.550;5.418;2023-02-20T08:57:32;62.65;;;32.47;;
32295;SDS011;18781;51.550;5.418;2023-02-20T08:59:57;57.58;;;30.50;;
32295;SDS011;18781;51.550;5.418;2023-02-20T09:02:23;55.40;;;31.55;;
32295;SDS011;18781;51.550;5.418;2023-02-20T09:04:52;62.92;;;31.40;;
32295;SDS011;18781;51.550;5.418;2023-02-20T09:07:18;61.05;;;33.35;;
32295;SDS011;18781;51.550;5.418;2023-02-20T09:09:44;60.67;;;32.00;;
32295;SDS011;18781;51.550;5.418;2023-02-20T09:12:09;55.40;;;31.33;;
32295;SDS011;18781;51.550;5.418;2023-02-20T09:14:35;55.90;;;32.08;;
32295;SDS011;18781;51.550;5.418;2023-02-20T09:17:01;61.97;;;33.90;;
32295;SDS011;18781;51.550;5.418;2023-02-20T09:19:27;60.33;;;31.33;;
32295;SDS011;18781;51.550;5.418;2023-02-20T09:21:53;60.05;;;33.03;;
32295;SDS011;18781;51.550;5.418;2023-02-20T09:24:19;60.95;;;33.95;;
32295;SDS011;18781;51.550;5.418;2023-02-20T09:26:44;62.70;;;34.15;;
32295;SDS011;18781;51.550;5.418;2023-02-20T09:29:10;66.22;;;34.33;;
32295;SDS011;18781;51.550;5.418;2023-02-20T09:31:35;58.53;;;34.53;;
32295;SDS011;18781;51.550;5.418;2023-02-20T09:34:01;69.10;;;35.08;;
32295;SDS011;18781;51.550;5.418;2023-02-20T09:36:28;65.22;;;34.40;;
32295;SDS011;18781;51.550;5.418;2023-02-20T09:38:54;65.97;;;34.13;;
32295;SDS011;18781;51.550;5.418;2023-02-20T09:41:34;60.08;;;35.38;;
32295;SDS011;18781;51.550;5.418;2023-02-20T09:44:41;72.18;;;36.28;;
32295;SDS011;18781;51.550;5.418;2023-02-20T09:50:32;67.47;;;35.70;;
32295;SDS011;18781;51.550;5.418;2023-02-20T09:53:24;64.13;;;36.35;;
32295;SDS011;18781;51.550;5.418;2023-02-20T09:56:13;67.85;;;37.30;;
32295;SDS011;18781;51.550;5.418;2023-02-20T09:58:44;67.45;;;35.58;;
32295;SDS011;18781;51.550;5.418;2023-02-20T10:01:14;72.88;;;39.05;;
32295;SDS011;18781;51.550;5.418;2023-02-20T10:03:54;66.65;;;35.70;;
32295;SDS011;18781;51.550;5.418;2023-02-20T10:06:27;72.13;;;36.17;;
32295;SDS011;18781;51.550;5.418;2023-02-20T10:08:55;65.03;;;36.80;;
32295;SDS011;18781;51.550;5.418;2023-02-20T10:16:50;67.43;;;35.78;;
32295;SDS011;18781;51.550;5.418;2023-02-20T10:22:25;73.97;;;34.58;;
32295;SDS011;18781;51.550;5.418;2023-02-20T10:28:09;61.70;;;34.22;;
32295;SDS011;18781;51.550;5.418;2023-02-20T10:30:40;63.40;;;34.70;;
32295;SDS011;18781;51.550;5.418;2023-02-20T10:33:23;62.17;;;33.75;;
32295;SDS011;18781;51.550;5.418;2023-02-20T10:38:51;69.40;;;35.45;;
32295;SDS011;18781;51.550;5.418;2023-02-20T10:41:42;66.45;;;34.00;;
32295;SDS011;18781;51.550;5.418;2023-02-20T10:44:23;62.65;;;33.13;;
32295;SDS011;18781;51.550;5.418;2023-02-20T10:47:06;66.25;;;34.17;;
32295;SDS011;18781;51.550;5.418;2023-02-20T10:49:51;66.47;;;34.55;;
32295;SDS011;18781;51.550;5.418;2023-02-20T10:52:28;66.40;;;35.05;;
32295;SDS011;18781;51.550;5.418;2023-02-20T10:55:17;62.63;;;34.03;;
32295;SDS011;18781;51.550;5.418;2023-02-20T10:57:50;65.05;;;34.53;;
32295;SDS011;18781;51.550;5.418;2023-02-20T11:00:39;68.13;;;34.55;;
32295;SDS011;18781;51.550;5.418;2023-02-20T11:03:14;67.63;;;34.83;;
32295;SDS011;18781;51.550;5.418;2023-02-20T11:05:49;67.18;;;37.00;;
32295;SDS011;18781;51.550;5.418;2023-02-20T11:08:17;67.32;;;37.53;;
32295;SDS011;18781;51.550;5.418;2023-02-20T11:10:46;68.85;;;36.72;;
32295;SDS011;18781;51.550;5.418;2023-02-20T11:13:14;72.10;;;37.58;;
32295;SDS011;18781;51.550;5.418;2023-02-20T11:15:44;71.57;;;38.75;;
32295;SDS011;18781;51.550;5.418;2023-02-20T11:18:26;80.00;;;40.28;;
32295;SDS011;18781;51.550;5.418;2023-02-20T11:20:57;74.50;;;39.63;;
32295;SDS011;18781;51.550;5.418;2023-02-20T11:23:33;70.25;;;39.72;;
32295;SDS011;18781;51.550;5.418;2023-02-20T11:28:53;80.93;;;40.95;;
32295;SDS011;18781;51.550;5.418;2023-02-20T11:31:21;74.40;;;40.97;;
32295;SDS011;18781;51.550;5.418;2023-02-20T11:33:48;72.60;;;42.28;;
32295;SDS011;18781;51.550;5.418;2023-02-20T11:36:18;79.13;;;43.13;;
32295;SDS011;18781;51.550;5.418;2023-02-20T11:38:55;81.82;;;42.30;;
32295;SDS011;18781;51.550;5.418;2023-02-20T11:41:34;78.45;;;42.65;;
32295;SDS011;18781;51.550;5.418;2023-02-20T11:44:05;79.40;;;45.05;;
32295;SDS011;18781;51.550;5.418;2023-02-20T11:46:34;77.55;;;44.05;;
32295;SDS011;18781;51.550;5.418;2023-02-20T11:51:45;81.07;;;43.70;;
32295;SDS011;18781;51.550;5.418;2023-02-20T11:59:42;76.30;;;40.50;;
32295;SDS011;18781;51.550;5.418;2023-02-20T12:04:44;72.57;;;41.03;;
32295;SDS011;18781;51.550;5.418;2023-02-20T12:12:50;67.03;;;37.25;;
32295;SDS011;18781;51.550;5.418;2023-02-20T12:15:17;71.65;;;39.67;;
32295;SDS011;18781;51.550;5.418;2023-02-20T12:20:25;73.72;;;40.28;;
32295;SDS011;18781;51.550;5.418;2023-02-20T12:28:45;70.05;;;36.03;;
32295;SDS011;18781;51.550;5.418;2023-02-20T12:34:26;65.85;;;37.20;;
32295;SDS011;18781;51.550;5.418;2023-02-20T12:37:28;67.93;;;36.65;;
32295;SDS011;18781;51.550;5.418;2023-02-20T12:42:51;61.83;;;36.47;;
32295;SDS011;18781;51.550;5.418;2023-02-20T12:45:37;63.45;;;37.08;;
32295;SDS011;18781;51.550;5.418;2023-02-20T12:48:30;70.97;;;36.55;;
32295;SDS011;18781;51.550;5.418;2023-02-20T12:59:48;64.68;;;39.00;;
32295;SDS011;18781;51.550;5.418;2023-02-20T13:02:28;70.13;;;39.78;;
32295;SDS011;18781;51.550;5.418;2023-02-20T13:05:04;71.72;;;41.45;;
32295;SDS011;18781;51.550;5.418;2023-02-20T13:07:38;66.40;;;39.08;;
32295;SDS011;18781;51.550;5.418;2023-02-20T13:12:49;55.45;;;31.75;;
32295;SDS011;18781;51.550;5.418;2023-02-20T13:21:10;58.13;;;35.55;;
32295;SDS011;18781;51.550;5.418;2023-02-20T13:23:41;67.13;;;35.33;;
32295;SDS011;18781;51.550;5.418;2023-02-20T13:28:50;70.45;;;40.63;;
32295;SDS011;18781;51.550;5.418;2023-02-20T13:31:21;70.53;;;38.33;;
32295;SDS011;18781;51.550;5.418;2023-02-20T13:39:42;69.28;;;38.90;;
32295;SDS011;18781;51.550;5.418;2023-02-20T13:46:56;78.15;;;45.63;;
32295;SDS011;18781;51.550;5.418;2023-02-20T13:54:53;74.30;;;41.60;;
32295;SDS011;18781;51.550;5.418;2023-02-20T13:57:19;69.68;;;40.00;;
32295;SDS011;18781;51.550;5.418;2023-02-20T13:59:48;63.47;;;37.67;;
32295;SDS011;18781;51.550;5.418;2023-02-20T14:02:16;60.75;;;34.67;;
32295;SDS011;18781;51.550;5.418;2023-02-20T14:04:55;53.50;;;31.42;;
32295;SDS011;18781;51.550;5.418;2023-02-20T14:07:30;48.22;;;28.02;;
32295;SDS011;18781;51.550;5.418;2023-02-20T14:10:03;45.55;;;26.27;;
32295;SDS011;18781;51.550;5.418;2023-02-20T14:12:52;44.95;;;24.83;;
32295;SDS011;18781;51.550;5.418;2023-02-20T14:15:22;39.30;;;24.77;;
32295;SDS011;18781;51.550;5.418;2023-02-20T14:17:48;42.15;;;27.25;;
32295;SDS011;18781;51.550;5.418;2023-02-20T14:20:20;151.40;;;80.18;;
32295;SDS011;18781;51.550;5.418;2023-02-20T14:23:07;72.65;;;46.85;;
32295;SDS011;18781;51.550;5.418;2023-02-20T14:28:19;53.25;;;32.22;;
32295;SDS011;18781;51.550;5.418;2023-02-20T14:30:45;49.10;;;31.00;;
32295;SDS011;18781;51.550;5.418;2023-02-20T14:33:18;54.05;;;34.22;;
32295;SDS011;18781;51.550;5.418;2023-02-20T14:41:30;61.97;;;36.17;;
32295;SDS011;18781;51.550;5.418;2023-02-20T14:43:58;54.42;;;35.97;;
32295;SDS011;18781;51.550;5.418;2023-02-20T14:46:32;50.13;;;34.53;;
32295;SDS011;18781;51.550;5.418;2023-02-20T14:49:03;53.90;;;34.92;;
32295;SDS011;18781;51.550;5.418;2023-02-20T14:51:30;50.50;;;35.33;;
32295;SDS011;18781;51.550;5.418;2023-02-20T14:54:00;52.85;;;33.67;;
32295;SDS011;18781;51.550;5.418;2023-02-20T14:56:34;52.38;;;33.90;;
32295;SDS011;18781;51.550;5.418;2023-02-20T14:59:20;53.83;;;36.13;;
32295;SDS011;18781;51.550;5.418;2023-02-20T15:02:12;56.78;;;40.05;;
32295;SDS011;18781;51.550;5.418;2023-02-20T15:04:51;49.22;;;28.95;;
32295;SDS011;18781;51.550;5.418;2023-02-20T15:07:20;44.78;;;26.27;;
32295;SDS011;18781;51.550;5.418;2023-02-20T15:09:47;38.58;;;26.27;;
32295;SDS011;18781;51.550;5.418;2023-02-20T15:12:27;45.17;;;27.77;;
32295;SDS011;18781;51.550;5.418;2023-02-20T15:14:58;44.25;;;25.75;;
32295;SDS011;18781;51.550;5.418;2023-02-20T15:17:31;44.53;;;27.85;;
32295;SDS011;18781;51.550;5.418;2023-02-20T15:19:59;44.72;;;27.40;;
32295;SDS011;18781;51.550;5.418;2023-02-20T15:27:36;38.60;;;23.02;;
32295;SDS011;18781;51.550;5.418;2023-02-20T15:30:20;44.50;;;24.83;;
32295;SDS011;18781;51.550;5.418;2023-02-20T15:32:50;44.22;;;26.60;;
32295;SDS011;18781;51.550;5.418;2023-02-20T15:35:17;45.63;;;25.88;;
32295;SDS011;18781;51.550;5.418;2023-02-20T15:37:48;38.38;;;27.50;;
32295;SDS011;18781;51.550;5.418;2023-02-20T15:40:24;52.45;;;29.98;;
32295;SDS011;18781;51.550;5.418;2023-02-20T15:42:59;49.70;;;30.73;;
32295;SDS011;18781;51.550;5.418;2023-02-20T15:45:25;57.58;;;31.63;;
32295;SDS011;18781;51.550;5.418;2023-02-20T15:47:52;56.75;;;33.67;;
32295;SDS011;18781;51.550;5.418;2023-02-20T15:50:18;60.33;;;34.08;;
32295;SDS011;18781;51.550;5.418;2023-02-20T15:52:45;51.30;;;34.38;;
32295;SDS011;18781;51.550;5.418;2023-02-20T15:55:16;57.78;;;30.60;;
32295;SDS011;18781;51.550;5.418;2023-02-20T15:57:44;42.05;;;26.08;;
32295;SDS011;18781;51.550;5.418;2023-02-20T16:00:21;43.53;;;22.60;;
32295;SDS011;18781;51.550;5.418;2023-02-20T16:02:47;43.00;;;22.45;;
32295;SDS011;18781;51.550;5.418;2023-02-20T16:05:12;40.80;;;22.35;;
32295;SDS011;18781;51.550;5.418;2023-02-20T16:07:38;46.60;;;24.98;;
32295;SDS011;18781;51.550;5.418;2023-02-20T16:10:04;42.75;;;24.85;;
32295;SDS011;18781;51.550;5.418;2023-02-20T16:12:30;41.63;;;25.45;;
32295;SDS011;18781;51.550;5.418;2023-02-20T16:14:57;45.00;;;27.17;;
32295;SDS011;18781;51.550;5.418;2023-02-20T16:17:25;44.72;;;26.42;;
32295;SDS011;18781;51.550;5.418;2023-02-20T16:19:52;50.47;;;29.67;;
32295;SDS011;18781;51.550;5.418;2023-02-20T16:22:18;51.38;;;32.67;;
32295;SDS011;18781;51.550;5.418;2023-02-20T16:24:44;56.30;;;32.50;;
32295;SDS011;18781;51.550;5.418;2023-02-20T16:27:14;53.55;;;34.92;;
32295;SDS011;18781;51.550;5.418;2023-02-20T16:29:43;56.88;;;34.28;;
32295;SDS011;18781;51.550;5.418;2023-02-20T16:32:12;57.95;;;37.53;;
32295;SDS011;18781;51.550;5.418;2023-02-20T16:34:40;55.08;;;37.95;;
32295;SDS011;18781;51.550;5.418;2023-02-20T16:37:08;62.92;;;39.60;;
32295;SDS011;18781;51.550;5.418;2023-02-20T16:39:36;69.80;;;42.65;;
32295;SDS011;18781;51.550;5.418;2023-02-20T16:42:02;67.40;;;42.20;;
32295;SDS011;18781;51.550;5.418;2023-02-20T16:44:42;64.05;;;40.00;;